Time;durP1;ratioP1;P1;durP2;ratioP2;P2;SDS_P1;SDS_P2;PMS_P1;PMS_P2;Temp;Humidity;BMP_temperature;BMP_pressure;BME280_temperature;BME280_humidity;BME280_pressure;Samples;Min_cycle;Max_cycle;Signal;HPM_P1;HPM_P2
2020/12/17 00:00:29;;;;;;;9.73;5.97;;;9.60;91.00;;;;;;5051109;28;20074;-83
2020/12/17 00:02:55;;;;;;;9.73;5.90;;;9.70;91.10;;;;;;5053370;28;20025;-82
2020/12/17 00:05:21;;;;;;;11.10;6.60;;;9.60;91.10;;;;;;5053249;28;20044;-83
2020/12/17 00:07:47;;;;;;;10.90;6.87;;;9.70;91.10;;;;;;5053433;28;20021;-83
2020/12/17 00:10:14;;;;;;;9.27;6.30;;;9.70;91.10;;;;;;5053084;28;20113;-82
2020/12/17 00:12:41;;;;;;;10.43;6.40;;;9.70;91.00;;;;;;5053007;28;20021;-81
2020/12/17 00:15:10;;;;;;;14.30;6.80;;;9.70;91.00;;;;;;5052038;28;20021;-83
2020/12/17 00:17:52;;;;;;;10.43;6.80;;;9.80;91.00;;;;;;5053302;28;20071;-83
2020/12/17 00:20:23;;;;;;;11.27;6.63;;;9.70;90.90;;;;;;5052920;28;20482;-82
2020/12/17 00:22:49;;;;;;;10.27;5.70;;;9.80;91.20;;;;;;5052756;28;20025;-82
2020/12/17 00:25:17;;;;;;;10.37;6.07;;;9.80;90.90;;;;;;5053426;28;20052;-83
2020/12/17 00:27:44;;;;;;;11.32;6.00;;;9.80;90.90;;;;;;5057941;28;20104;-82
2020/12/17 00:30:11;;;;;;;12.30;5.73;;;9.70;90.80;;;;;;5056987;28;20057;-82
2020/12/17 00:32:41;;;;;;;10.80;6.13;;;9.80;90.90;;;;;;5056913;28;20067;-83
2020/12/17 00:35:08;;;;;;;10.10;5.53;;;9.80;90.90;;;;;;5056953;28;20024;-82
2020/12/17 00:37:35;;;;;;;9.93;5.50;;;9.80;90.90;;;;;;5056514;28;20545;-83
2020/12/17 00:40:08;;;;;;;9.40;5.63;;;9.80;90.90;;;;;;5056345;28;20130;-82
2020/12/17 00:42:37;;;;;;;10.17;6.30;;;9.80;90.90;;;;;;5056582;28;20029;-82
2020/12/17 00:45:02;;;;;;;8.70;5.70;;;9.80;90.90;;;;;;5056183;28;20021;-82
2020/12/17 00:47:29;;;;;;;9.30;6.10;;;9.80;90.90;;;;;;5055278;28;20171;-82
2020/12/17 00:49:55;;;;;;;10.50;5.70;;;9.80;90.90;;;;;;5056062;28;20075;-82
2020/12/17 00:52:22;;;;;;;8.63;5.60;;;9.80;90.90;;;;;;5054529;28;20021;-82
2020/12/17 00:54:48;;;;;;;8.63;5.67;;;9.80;90.90;;;;;;5055983;28;20021;-82
2020/12/17 00:57:14;;;;;;;8.87;6.07;;;9.80;90.90;;;;;;5056171;28;20032;-82
2020/12/17 00:59:40;;;;;;;10.60;6.27;;;9.80;90.90;;;;;;5055718;28;20389;-82
2020/12/17 01:02:06;;;;;;;11.20;6.00;;;9.80;90.90;;;;;;5055875;28;20453;-83
2020/12/17 01:04:31;;;;;;;9.17;5.33;;;9.70;90.80;;;;;;5054695;28;20064;-83
2020/12/17 01:06:57;;;;;;;8.77;5.67;;;9.80;90.80;;;;;;5054415;28;20021;-82
2020/12/17 01:09:23;;;;;;;8.97;5.33;;;9.80;90.80;;;;;;5055272;28;20025;-82
2020/12/17 01:11:49;;;;;;;8.27;5.33;;;9.80;90.80;;;;;;5056114;28;20029;-82
2020/12/17 01:14:14;;;;;;;9.17;5.43;;;9.80;90.70;;;;;;5055343;28;20036;-82
2020/12/17 01:16:40;;;;;;;8.67;5.60;;;9.80;90.80;;;;;;5056753;28;20035;-83
2020/12/17 01:19:08;;;;;;;8.77;5.40;;;9.80;90.80;;;;;;5054810;28;20025;-83
2020/12/17 01:21:34;;;;;;;10.47;5.90;;;9.80;90.80;;;;;;5057191;28;20025;-81
2020/12/17 01:23:59;;;;;;;8.53;5.33;;;9.80;90.80;;;;;;5055831;28;20094;-81
2020/12/17 01:26:25;;;;;;;9.10;5.40;;;9.70;90.80;;;;;;5057033;28;20036;-83
2020/12/17 01:28:50;;;;;;;7.90;5.20;;;9.80;90.80;;;;;;5056999;28;20029;-82
2020/12/17 01:31:16;;;;;;;8.37;4.90;;;9.80;90.70;;;;;;5056958;28;20047;-83
2020/12/17 01:33:42;;;;;;;7.93;5.53;;;9.80;90.70;;;;;;5057226;28;20060;-83
2020/12/17 01:36:10;;;;;;;8.87;5.20;;;9.80;90.60;;;;;;5057615;28;20048;-83
2020/12/17 01:38:36;;;;;;;7.80;4.43;;;9.80;90.60;;;;;;5056964;28;20060;-83
2020/12/17 01:41:04;;;;;;;7.30;4.60;;;9.80;90.70;;;;;;5056873;28;20029;-83
2020/12/17 01:43:40;;;;;;;7.63;5.10;;;9.80;90.60;;;;;;5058429;28;20058;-83
2020/12/17 01:46:06;;;;;;;8.17;4.90;;;9.90;90.70;;;;;;5057296;28;20029;-83
2020/12/17 01:48:32;;;;;;;7.83;4.30;;;9.90;90.70;;;;;;5057701;28;20029;-83
2020/12/17 01:50:58;;;;;;;10.50;4.93;;;9.80;90.80;;;;;;5055908;28;20021;-83
2020/12/17 01:53:24;;;;;;;8.20;4.70;;;9.90;90.90;;;;;;5057321;28;20474;-82
2020/12/17 01:55:55;;;;;;;8.57;5.17;;;9.80;90.80;;;;;;5057530;28;20029;-83
2020/12/17 01:58:23;;;;;;;8.93;5.03;;;9.90;90.90;;;;;;5057978;28;20425;-83
2020/12/17 02:00:53;;;;;;;10.13;5.38;;;9.80;90.90;;;;;;5059031;28;20020;-82
2020/12/17 02:03:19;;;;;;;;;;;9.90;91.10;;;;;;5058871;28;20024;-82
2020/12/17 02:05:45;;;;;;;7.67;4.50;;;9.90;91.00;;;;;;5056495;28;20388;-82
2020/12/17 02:08:13;;;;;;;7.57;4.60;;;9.90;91.10;;;;;;5056557;28;20088;-82
2020/12/17 02:10:40;;;;;;;7.80;4.77;;;9.90;91.20;;;;;;5056018;28;20081;-81
2020/12/17 02:13:10;;;;;;;8.07;4.67;;;9.90;91.20;;;;;;5056302;28;20500;-82
2020/12/17 02:15:36;;;;;;;8.60;4.80;;;9.80;91.20;;;;;;5056058;28;20547;-82
2020/12/17 02:18:01;;;;;;;6.37;4.43;;;9.80;91.10;;;;;;5056348;28;20029;-82
2020/12/17 02:20:27;;;;;;;8.77;4.70;;;9.90;91.10;;;;;;5055980;28;20071;-82
2020/12/17 02:22:53;;;;;;;8.03;4.83;;;9.90;91.20;;;;;;5056005;28;20095;-82
2020/12/17 02:25:18;;;;;;;8.10;4.80;;;9.90;91.20;;;;;;5056146;28;20017;-82
2020/12/17 02:27:47;;;;;;;10.23;5.73;;;9.90;91.20;;;;;;5056016;28;20025;-82
2020/12/17 02:30:13;;;;;;;8.57;4.65;;;9.90;91.10;;;;;;5056124;28;20017;-82
2020/12/17 02:32:39;;;;;;;8.07;4.90;;;9.90;91.00;;;;;;5055448;28;20032;-82
2020/12/17 02:35:07;;;;;;;7.27;4.60;;;9.90;91.10;;;;;;5056183;28;20600;-82
2020/12/17 02:37:33;;;;;;;7.33;4.37;;;9.90;91.10;;;;;;5055413;28;20021;-83
2020/12/17 02:40:01;;;;;;;6.33;4.17;;;9.90;90.90;;;;;;5055304;28;20028;-83
2020/12/17 02:42:27;;;;;;;9.20;4.90;;;9.80;91.00;;;;;;5055423;28;20025;-83
2020/12/17 02:44:53;;;;;;;8.60;4.70;;;9.90;91.00;;;;;;5055425;28;20025;-83
2020/12/17 02:47:18;;;;;;;6.93;4.40;;;9.90;90.90;;;;;;5055575;28;20049;-83
2020/12/17 02:49:44;;;;;;;9.47;4.80;;;9.90;90.90;;;;;;5054211;28;20028;-83
2020/12/17 02:52:10;;;;;;;7.47;4.20;;;9.90;90.90;;;;;;5056050;28;20025;-82
2020/12/17 02:54:35;;;;;;;6.10;4.57;;;9.90;90.80;;;;;;5055377;28;20557;-83
2020/12/17 02:57:01;;;;;;;9.23;4.80;;;9.90;90.80;;;;;;5055868;28;20033;-82
2020/12/17 02:59:27;;;;;;;6.90;4.30;;;9.90;90.80;;;;;;5053977;28;20025;-83
2020/12/17 03:01:52;;;;;;;6.90;4.13;;;10.00;90.80;;;;;;5053858;28;20535;-82
2020/12/17 03:04:18;;;;;;;8.23;4.50;;;9.90;90.80;;;;;;5053440;28;20021;-82
2020/12/17 03:06:44;;;;;;;7.47;4.60;;;9.90;90.90;;;;;;5054797;28;20025;-82
2020/12/17 03:09:09;;;;;;;9.50;4.73;;;9.90;90.90;;;;;;5054095;28;20028;-82
2020/12/17 03:11:35;;;;;;;9.70;4.90;;;9.90;90.90;;;;;;5054358;28;20039;-82
2020/12/17 03:14:01;;;;;;;9.37;4.67;;;9.90;90.90;;;;;;5054384;28;20045;-83
2020/12/17 03:16:26;;;;;;;5.97;4.17;;;9.90;90.80;;;;;;5053924;28;20029;-83
2020/12/17 03:18:55;;;;;;;7.97;4.20;;;9.90;90.70;;;;;;5053934;28;20090;-83
2020/12/17 03:21:21;;;;;;;9.50;5.10;;;9.90;90.70;;;;;;5054095;28;20021;-83
2020/12/17 03:23:47;;;;;;;7.03;3.67;;;9.90;90.80;;;;;;5054114;28;20063;-81
2020/12/17 03:26:12;;;;;;;8.93;4.70;;;9.90;90.70;;;;;;5053516;28;20036;-82
2020/12/17 03:28:38;;;;;;;10.33;4.63;;;9.90;90.60;;;;;;5054271;28;20039;-82
2020/12/17 03:31:04;;;;;;;7.63;4.60;;;9.90;90.60;;;;;;5053005;28;20456;-83
2020/12/17 03:33:30;;;;;;;7.50;4.37;;;9.90;90.60;;;;;;5052403;28;20036;-82
2020/12/17 03:35:55;;;;;;;8.13;4.50;;;9.90;90.50;;;;;;5053407;28;20025;-82
2020/12/17 03:38:21;;;;;;;7.83;4.37;;;9.90;90.50;;;;;;5053763;28;20052;-82
2020/12/17 03:40:47;;;;;;;6.70;4.40;;;9.90;90.50;;;;;;5052824;28;20021;-83
2020/12/17 03:43:12;;;;;;;7.37;4.67;;;9.90;90.50;;;;;;5053323;28;20489;-82
2020/12/17 03:45:38;;;;;;;9.43;5.07;;;9.90;90.40;;;;;;5053184;28;20035;-83
2020/12/17 03:48:03;;;;;;;6.77;4.20;;;9.90;90.40;;;;;;5052518;28;20036;-83
2020/12/17 03:50:29;;;;;;;7.77;4.33;;;10.00;90.40;;;;;;5053134;28;20056;-83
2020/12/17 03:52:54;;;;;;;8.87;4.77;;;9.90;90.30;;;;;;5052477;28;20394;-82
2020/12/17 03:55:23;;;;;;;8.00;4.10;;;9.90;90.30;;;;;;5053997;28;20484;-82
2020/12/17 03:57:48;;;;;;;7.97;4.63;;;9.90;90.30;;;;;;5053643;28;20023;-83
2020/12/17 04:00:14;;;;;;;9.40;4.23;;;9.90;90.30;;;;;;5053339;28;20477;-82
2020/12/17 04:02:39;;;;;;;6.40;4.37;;;10.00;90.30;;;;;;5057619;28;20056;-83
2020/12/17 04:05:05;;;;;;;9.10;4.90;;;9.90;90.20;;;;;;5057584;28;20021;-83
2020/12/17 04:07:30;;;;;;;7.37;4.20;;;9.90;90.20;;;;;;5056340;28;20025;-82
2020/12/17 04:09:56;;;;;;;6.70;3.90;;;9.90;90.30;;;;;;5056839;28;20024;-82
2020/12/17 04:12:24;;;;;;;7.57;4.63;;;9.90;90.20;;;;;;5058119;28;20025;-83
2020/12/17 04:14:50;;;;;;;7.70;4.60;;;9.90;90.20;;;;;;5056347;28;20100;-83
2020/12/17 04:17:16;;;;;;;6.97;4.30;;;9.90;90.20;;;;;;5059258;28;20118;-82
2020/12/17 04:19:44;;;;;;;8.57;4.27;;;9.90;90.20;;;;;;5058225;28;20098;-82
2020/12/17 04:22:16;;;;;;;7.03;3.83;;;10.00;90.20;;;;;;5058829;28;20105;-82
2020/12/17 04:24:47;;;;;;;7.87;4.17;;;9.90;90.20;;;;;;5057264;28;20028;-82
2020/12/17 04:27:14;;;;;;;7.23;4.43;;;9.90;90.20;;;;;;5057772;28;20025;-82
2020/12/17 04:29:42;;;;;;;7.83;4.30;;;9.90;90.20;;;;;;5057341;28;20450;-82
2020/12/17 04:32:08;;;;;;;6.50;3.93;;;9.90;90.20;;;;;;5057361;28;20390;-82
2020/12/17 04:34:34;;;;;;;6.87;4.17;;;9.90;90.20;;;;;;5057827;28;20033;-83
2020/12/17 04:36:59;;;;;;;7.20;3.90;;;9.90;90.20;;;;;;5056274;28;20029;-82
2020/12/17 04:39:25;;;;;;;8.00;4.00;;;9.90;90.10;;;;;;5056646;28;20029;-82
2020/12/17 04:41:52;;;;;;;8.90;4.80;;;9.90;90.10;;;;;;5057572;28;20103;-83
2020/12/17 04:44:19;;;;;;;7.27;4.13;;;9.90;90.10;;;;;;5057112;28;20017;-83
2020/12/17 04:46:54;;;;;;;8.70;4.37;;;9.90;90.10;;;;;;5057605;28;20453;-83
2020/12/17 04:49:23;;;;;;;8.20;4.00;;;9.90;90.10;;;;;;5057164;28;20017;-83
2020/12/17 04:51:55;;;;;;;8.55;5.00;;;10.00;90.10;;;;;;5057138;28;20029;-83
2020/12/17 04:54:22;;;;;;;8.80;4.90;;;9.90;90.10;;;;;;5057239;28;20044;-83
2020/12/17 04:57:06;;;;;;;8.20;4.60;;;9.90;90.10;;;;;;5057642;28;20036;-83
2020/12/17 04:59:58;;;;;;;9.70;4.60;;;9.90;90.10;;;;;;5057043;28;20495;-82
2020/12/17 05:02:25;;;;;;;6.67;4.30;;;9.90;90.10;;;;;;5053010;28;20040;-82
2020/12/17 05:04:53;;;;;;;7.43;4.53;;;9.90;90.10;;;;;;5056853;28;20025;-82
2020/12/17 05:07:23;;;;;;;7.47;4.63;;;9.90;90.10;;;;;;5057121;28;20025;-83
2020/12/17 05:09:50;;;;;;;8.70;4.53;;;9.90;90.20;;;;;;5056674;28;20367;-83
2020/12/17 05:12:17;;;;;;;8.40;4.70;;;9.90;90.10;;;;;;5056571;28;20032;-83
2020/12/17 05:14:43;;;;;;;9.03;5.10;;;10.00;90.10;;;;;;5057610;28;20066;-83
2020/12/17 05:17:09;;;;;;;8.97;4.73;;;10.00;90.10;;;;;;5057388;28;20032;-83
2020/12/17 05:19:35;;;;;;;11.47;5.00;;;10.00;90.10;;;;;;5056208;28;20029;-83
2020/12/17 05:22:03;;;;;;;8.43;4.80;;;10.00;90.10;;;;;;5056591;28;20024;-83
2020/12/17 05:24:29;;;;;;;10.47;4.93;;;10.00;90.20;;;;;;5057059;28;20029;-83
2020/12/17 05:26:58;;;;;;;7.93;4.87;;;10.00;90.20;;;;;;5057257;28;20397;-83
2020/12/17 05:29:24;;;;;;;8.67;5.33;;;10.00;90.20;;;;;;5056741;28;20016;-83
2020/12/17 05:31:50;;;;;;;9.50;4.97;;;10.00;90.20;;;;;;5057166;28;20029;-84
2020/12/17 05:34:16;;;;;;;8.67;4.90;;;10.00;90.30;;;;;;5056959;28;20025;-83
2020/12/17 05:36:43;;;;;;;9.87;5.30;;;10.00;90.30;;;;;;5056923;28;20029;-83
2020/12/17 05:39:15;;;;;;;9.00;5.30;;;10.00;90.40;;;;;;5056186;28;20482;-83
2020/12/17 05:41:42;;;;;;;8.07;5.10;;;9.90;90.50;;;;;;5058354;28;20082;-83
2020/12/17 05:44:12;;;;;;;14.77;5.13;;;9.90;90.50;;;;;;5058537;28;20021;-83
2020/12/17 05:46:39;;;;;;;9.47;5.80;;;9.90;90.50;;;;;;5058029;28;20033;-83
2020/12/17 05:49:15;;;;;;;11.63;5.43;;;9.90;90.70;;;;;;5057468;28;20056;-82
2020/12/17 05:51:41;;;;;;;8.27;5.00;;;9.90;90.70;;;;;;5054791;28;20025;-82
2020/12/17 05:54:21;;;;;;;7.93;5.23;;;9.90;90.70;;;;;;5056255;28;20080;-82
2020/12/17 05:56:48;;;;;;;10.03;6.20;;;9.90;90.70;;;;;;5055649;28;20474;-83
2020/12/17 05:59:21;;;;;;;9.87;5.80;;;9.90;90.90;;;;;;5054973;28;20029;-82
2020/12/17 06:01:48;;;;;;;9.70;5.93;;;9.90;90.90;;;;;;5055190;28;20060;-82
2020/12/17 06:04:15;;;;;;;10.50;6.13;;;9.90;91.20;;;;;;5055235;28;20024;-83
2020/12/17 06:06:46;;;;;;;9.80;5.63;;;9.90;91.20;;;;;;5054992;28;20044;-83
2020/12/17 06:09:20;;;;;;;10.83;5.97;;;9.90;91.30;;;;;;5055096;28;20036;-83
2020/12/17 06:11:47;;;;;;;9.87;6.70;;;9.90;91.60;;;;;;5055808;28;20028;-82
2020/12/17 06:14:14;;;;;;;10.13;5.63;;;9.90;91.70;;;;;;5055608;28;20033;-81
2020/12/17 06:16:43;;;;;;;9.33;5.73;;;9.90;91.70;;;;;;5055748;28;20032;-81
2020/12/17 06:19:12;;;;;;;12.77;6.60;;;9.80;91.80;;;;;;5053785;28;20024;-82
2020/12/17 06:21:39;;;;;;;;;;;9.80;92.20;;;;;;5056263;28;20131;-82
2020/12/17 06:24:06;;;;;;;11.07;6.73;;;9.80;92.10;;;;;;5054400;28;20007;-81
2020/12/17 06:26:37;;;;;;;9.43;6.50;;;9.80;92.20;;;;;;5054722;28;20029;-81
2020/12/17 06:29:16;;;;;;;15.17;7.37;;;9.90;92.50;;;;;;5054526;28;20147;-82
2020/12/17 06:31:52;;;;;;;15.97;9.17;;;9.80;92.50;;;;;;5054313;28;20389;-81
2020/12/17 06:34:18;;;;;;;11.70;7.77;;;9.80;92.60;;;;;;5055458;28;20025;-82
2020/12/17 06:36:47;;;;;;;13.63;8.13;;;9.70;92.70;;;;;;5054168;28;20078;-81
2020/12/17 06:39:14;;;;;;;12.68;7.50;;;9.80;92.90;;;;;;5053790;28;20512;-82
2020/12/17 06:41:40;;;;;;;14.00;7.37;;;9.70;93.00;;;;;;5053867;28;20031;-82
2020/12/17 06:44:27;;;;;;;14.57;7.53;;;9.70;93.00;;;;;;5054575;28;20100;-82
2020/12/17 06:46:58;;;;;;;13.23;7.20;;;9.80;93.10;;;;;;5054041;28;20064;-81
2020/12/17 06:49:29;;;;;;;16.30;7.40;;;9.70;93.20;;;;;;5053748;28;20031;-82
2020/12/17 06:52:08;;;;;;;13.87;7.57;;;9.70;93.30;;;;;;5054244;28;20067;-82
2020/12/17 06:54:37;;;;;;;12.15;7.25;;;9.70;93.40;;;;;;5053385;28;20029;-82
2020/12/17 06:57:14;;;;;;;15.15;7.78;;;9.70;93.60;;;;;;5055154;28;20025;-81
2020/12/17 06:59:41;;;;;;;15.63;8.47;;;9.60;93.70;;;;;;5054431;28;20032;-81
2020/12/17 07:02:07;;;;;;;15.20;7.30;;;9.70;93.70;;;;;;5053391;28;20084;-82
2020/12/17 07:04:45;;;;;;;12.70;7.87;;;9.70;93.80;;;;;;5054670;28;20013;-81
2020/12/17 07:07:16;;;;;;;12.73;6.60;;;9.70;93.80;;;;;;5054602;28;20104;-81
2020/12/17 07:09:44;;;;;;;11.60;6.73;;;9.60;93.90;;;;;;5054341;28;20021;-82
2020/12/17 07:12:11;;;;;;;9.53;6.13;;;9.70;93.90;;;;;;5054836;28;20053;-82
2020/12/17 07:14:37;;;;;;;14.13;7.23;;;9.70;93.90;;;;;;5053322;28;20039;-82
2020/12/17 07:17:08;;;;;;;11.23;6.83;;;9.70;94.00;;;;;;5054723;28;20023;-82
2020/12/17 07:19:37;;;;;;;13.20;6.60;;;9.70;94.00;;;;;;5053981;28;20025;-82
2020/12/17 07:22:05;;;;;;;14.35;7.72;;;9.70;94.00;;;;;;5055357;28;20390;-83
2020/12/17 07:24:36;;;;;;;9.27;6.67;;;9.70;94.10;;;;;;5053013;28;20036;-82
2020/12/17 07:27:12;;;;;;;10.90;6.33;;;9.70;94.10;;;;;;5053509;28;20028;-83
2020/12/17 07:29:45;;;;;;;11.63;6.97;;;9.60;94.10;;;;;;5054589;28;20057;-82
2020/12/17 07:32:32;;;;;;;12.73;6.90;;;9.70;94.20;;;;;;5055643;28;20029;-83
2020/12/17 07:35:20;;;;;;;11.10;6.43;;;9.70;94.20;;;;;;5054931;28;20096;-83
2020/12/17 07:37:47;;;;;;;11.93;6.27;;;9.70;94.30;;;;;;5055274;28;20028;-83
2020/12/17 07:40:36;;;;;;;13.57;6.20;;;9.70;94.30;;;;;;5052957;28;20025;-83
2020/12/17 07:43:06;;;;;;;9.77;6.65;;;9.70;94.30;;;;;;5055348;28;20108;-83
2020/12/17 07:45:53;;;;;;;11.97;5.90;;;9.70;94.40;;;;;;5053450;28;20109;-83
2020/12/17 07:48:38;;;;;;;11.70;6.10;;;9.70;94.40;;;;;;5054854;28;20025;-82
2020/12/17 07:51:13;;;;;;;11.97;6.33;;;9.70;94.50;;;;;;5054628;28;20067;-82
2020/12/17 07:53:39;;;;;;;11.50;6.27;;;9.70;94.40;;;;;;5054639;28;20101;-83
2020/12/17 07:56:06;;;;;;;10.97;6.13;;;9.70;94.40;;;;;;5054437;28;20029;-83
2020/12/17 07:58:33;;;;;;;8.57;5.67;;;9.60;94.40;;;;;;5054704;28;20035;-83
2020/12/17 08:00:59;;;;;;;8.63;4.83;;;9.70;94.30;;;;;;5053951;28;20078;-83
2020/12/17 08:03:25;;;;;;;9.87;5.30;;;9.70;94.30;;;;;;5053301;28;20139;-83
2020/12/17 08:05:52;;;;;;;14.57;5.50;;;9.60;94.30;;;;;;5054948;28;20230;-83
2020/12/17 08:08:19;;;;;;;7.90;5.00;;;9.70;94.10;;;;;;5055122;28;20037;-83
2020/12/17 08:10:46;;;;;;;9.33;5.03;;;9.60;94.10;;;;;;5054869;28;20029;-82
2020/12/17 08:13:12;;;;;;;10.93;5.30;;;9.70;94.20;;;;;;5052849;28;20111;-83
2020/12/17 08:15:38;;;;;;;7.73;4.30;;;9.60;94.10;;;;;;5054262;28;20071;-83
2020/12/17 08:18:04;;;;;;;8.27;4.40;;;9.70;94.00;;;;;;5054056;28;20036;-83
2020/12/17 08:20:31;;;;;;;8.97;4.97;;;9.60;93.80;;;;;;5054570;28;20017;-82
2020/12/17 08:22:57;;;;;;;8.20;4.73;;;9.60;93.70;;;;;;5054759;28;20180;-83
2020/12/17 08:25:24;;;;;;;10.00;4.80;;;9.70;93.70;;;;;;5055427;28;20021;-83
2020/12/17 08:27:53;;;;;;;10.93;4.87;;;9.70;93.70;;;;;;5054920;28;20024;-83
2020/12/17 08:30:21;;;;;;;8.18;4.88;;;9.70;93.80;;;;;;5053903;28;20025;-83
2020/12/17 08:32:52;;;;;;;10.93;5.13;;;9.70;93.60;;;;;;5054254;28;20029;-83
2020/12/17 08:35:21;;;;;;;9.03;4.50;;;9.70;93.50;;;;;;5054527;28;20021;-83
2020/12/17 08:37:48;;;;;;;10.73;5.00;;;9.70;93.50;;;;;;5054261;28;20068;-83
2020/12/17 08:40:20;;;;;;;8.40;4.47;;;9.70;93.50;;;;;;5053123;28;20068;-83
2020/12/17 08:42:47;;;;;;;7.07;4.20;;;9.70;93.30;;;;;;5054450;28;20025;-83
2020/12/17 08:45:13;;;;;;;6.90;4.40;;;9.70;93.30;;;;;;5055135;28;20021;-82
2020/12/17 08:47:42;;;;;;;6.97;3.80;;;9.70;93.20;;;;;;5054906;28;20025;-83
2020/12/17 08:50:09;;;;;;;8.27;4.72;;;9.70;93.20;;;;;;5057809;28;20501;-82
2020/12/17 08:52:35;;;;;;;7.90;4.23;;;9.60;93.00;;;;;;5058194;28;20557;-83
2020/12/17 08:55:05;;;;;;;8.47;4.20;;;9.70;92.80;;;;;;5058641;28;20064;-83
2020/12/17 08:57:32;;;;;;;7.53;3.70;;;9.70;93.30;;;;;;5057990;28;20029;-83
2020/12/17 08:59:57;;;;;;;7.87;4.10;;;9.70;92.90;;;;;;5058206;28;20025;-83
2020/12/17 09:02:25;;;;;;;6.87;3.30;;;9.70;92.90;;;;;;5058425;28;20025;-83
2020/12/17 09:04:58;;;;;;;4.90;3.33;;;9.70;92.90;;;;;;5057945;28;20044;-83
2020/12/17 09:07:25;;;;;;;4.63;2.80;;;9.60;92.70;;;;;;5057844;28;20078;-83
2020/12/17 09:09:51;;;;;;;5.47;2.73;;;9.70;92.90;;;;;;5058463;28;20033;-83
2020/12/17 09:12:27;;;;;;;8.27;2.90;;;9.70;92.90;;;;;;5057665;28;20079;-83
2020/12/17 09:14:53;;;;;;;6.00;2.87;;;9.70;92.90;;;;;;5057182;28;20482;-83
2020/12/17 09:17:19;;;;;;;5.60;2.80;;;9.70;92.90;;;;;;5056053;28;20029;-83
2020/12/17 09:19:49;;;;;;;5.70;3.43;;;9.70;92.90;;;;;;5057612;28;20103;-83
2020/12/17 09:22:19;;;;;;;6.80;3.23;;;9.70;92.70;;;;;;5057713;28;20037;-83
2020/12/17 09:24:54;;;;;;;6.07;2.90;;;9.70;92.80;;;;;;5057199;28;20231;-82
2020/12/17 09:27:28;;;;;;;6.07;2.70;;;9.80;92.70;;;;;;5056766;28;20025;-83
2020/12/17 09:30:12;;;;;;;5.67;2.80;;;9.70;92.60;;;;;;5056054;28;20053;-83
2020/12/17 09:32:51;;;;;;;6.57;3.53;;;9.70;92.50;;;;;;5056336;28;20029;-83
2020/12/17 09:35:17;;;;;;;3.83;2.22;;;9.70;92.40;;;;;;5056617;28;20024;-83
2020/12/17 09:38:01;;;;;;;4.77;2.40;;;9.80;92.10;;;;;;5056456;28;20112;-83
2020/12/17 09:40:28;;;;;;;4.50;2.30;;;9.80;92.10;;;;;;5056208;28;20025;-83
2020/12/17 09:43:08;;;;;;;4.43;2.23;;;9.80;92.30;;;;;;5055359;28;20378;-83
2020/12/17 09:45:38;;;;;;;4.63;1.90;;;9.80;92.10;;;;;;5054931;28;20424;-83
2020/12/17 09:48:18;;;;;;;4.37;2.33;;;9.80;91.90;;;;;;5056614;28;20017;-83
2020/12/17 09:51:00;;;;;;;5.10;2.13;;;9.80;91.90;;;;;;5054058;28;20024;-83
2020/12/17 09:53:28;;;;;;;4.30;2.30;;;9.80;91.80;;;;;;5056467;28;20037;-83
2020/12/17 09:55:53;;;;;;;4.00;1.90;;;9.90;91.60;;;;;;5056265;28;20029;-83
2020/12/17 09:58:19;;;;;;;3.33;1.70;;;9.80;91.60;;;;;;5057196;28;20048;-83
2020/12/17 10:00:45;;;;;;;3.10;1.70;;;9.80;91.30;;;;;;5056296;28;20504;-83
2020/12/17 10:03:10;;;;;;;3.07;1.30;;;9.80;91.00;;;;;;5056213;28;20088;-82
2020/12/17 10:05:36;;;;;;;2.10;1.40;;;9.80;90.90;;;;;;5055946;28;20420;-83
2020/12/17 10:08:02;;;;;;;3.60;1.50;;;9.80;91.00;;;;;;5054786;28;20088;-84
2020/12/17 10:10:29;;;;;;;4.10;1.70;;;9.80;90.90;;;;;;5055802;28;20063;-83
2020/12/17 10:12:58;;;;;;;6.53;1.83;;;9.80;90.90;;;;;;5055742;28;20127;-84
2020/12/17 10:15:28;;;;;;;4.40;1.40;;;9.80;90.60;;;;;;5055214;28;20021;-84
2020/12/17 10:17:54;;;;;;;5.17;1.63;;;9.80;90.70;;;;;;5056412;28;20028;-83
2020/12/17 10:20:21;;;;;;;4.20;1.70;;;9.80;90.90;;;;;;5053847;28;20437;-83
2020/12/17 10:22:47;;;;;;;4.63;1.90;;;9.80;90.70;;;;;;5055027;28;20108;-83
2020/12/17 10:25:13;;;;;;;3.60;1.70;;;9.80;90.70;;;;;;5055798;28;20070;-83
2020/12/17 10:27:39;;;;;;;5.37;1.97;;;9.80;90.70;;;;;;5055389;28;20021;-84
2020/12/17 10:30:06;;;;;;;4.63;1.93;;;9.80;90.80;;;;;;5055462;28;20040;-83
2020/12/17 10:32:32;;;;;;;4.07;1.80;;;9.80;90.50;;;;;;5054560;28;20032;-83
2020/12/17 10:34:59;;;;;;;5.03;1.90;;;9.80;90.60;;;;;;5056258;28;20036;-84
2020/12/17 10:37:25;;;;;;;3.63;1.90;;;9.80;90.60;;;;;;5056613;28;20035;-84
2020/12/17 10:39:50;;;;;;;5.17;1.83;;;9.80;90.60;;;;;;5056532;28;20021;-84
2020/12/17 10:42:16;;;;;;;4.30;1.97;;;9.90;90.70;;;;;;5056922;28;20027;-84
2020/12/17 10:44:42;;;;;;;4.83;1.97;;;9.80;90.50;;;;;;5054157;28;20124;-84
2020/12/17 10:47:07;;;;;;;4.57;1.80;;;9.90;90.40;;;;;;5055588;28;20028;-83
2020/12/17 10:49:33;;;;;;;6.53;2.00;;;9.90;90.50;;;;;;5054540;28;20052;-84
2020/12/17 10:51:59;;;;;;;3.10;1.77;;;9.90;90.40;;;;;;5055014;28;20044;-83
2020/12/17 10:54:25;;;;;;;5.13;1.90;;;9.90;90.20;;;;;;5055598;28;20025;-83
2020/12/17 10:56:51;;;;;;;4.60;2.33;;;9.90;90.50;;;;;;5054024;28;20032;-84
2020/12/17 10:59:16;;;;;;;5.57;2.00;;;9.90;90.40;;;;;;5055033;28;20036;-84
2020/12/17 11:01:42;;;;;;;3.60;1.73;;;9.90;90.20;;;;;;5054186;28;20367;-84
2020/12/17 11:04:08;;;;;;;6.13;1.87;;;9.90;90.10;;;;;;5055082;28;20478;-84
2020/12/17 11:06:34;;;;;;;5.00;1.77;;;10.00;90.00;;;;;;5055097;28;20053;-83
2020/12/17 11:09:00;;;;;;;4.27;1.80;;;10.00;90.10;;;;;;5053420;28;20543;-84
2020/12/17 11:11:25;;;;;;;3.30;1.50;;;9.90;90.10;;;;;;5054208;28;20072;-84
2020/12/17 11:13:53;;;;;;;5.20;1.90;;;10.00;90.00;;;;;;5054777;28;20033;-83
2020/12/17 11:16:18;;;;;;;3.73;1.83;;;10.00;90.10;;;;;;5054359;28;20028;-83
2020/12/17 11:18:44;;;;;;;4.27;1.80;;;9.90;90.10;;;;;;5054610;28;20033;-83
2020/12/17 11:21:10;;;;;;;9.23;3.03;;;9.90;90.20;;;;;;5054112;28;20029;-83
2020/12/17 11:23:35;;;;;;;8.70;2.70;;;10.00;89.80;;;;;;5054747;28;20048;-83
2020/12/17 11:26:03;;;;;;;6.20;2.37;;;10.00;89.80;;;;;;5053964;28;20032;-83
2020/12/17 11:28:29;;;;;;;7.57;2.77;;;10.00;89.90;;;;;;5053725;28;20554;-83
2020/12/17 11:30:54;;;;;;;7.70;3.10;;;10.10;88.80;;;;;;5053709;28;20049;-83
2020/12/17 11:33:20;;;;;;;10.37;3.23;;;10.10;87.50;;;;;;5054589;28;20025;-83
2020/12/17 11:35:45;;;;;;;5.83;3.30;;;10.10;87.20;;;;;;5055849;28;20029;-83
2020/12/17 11:38:14;;;;;;;9.03;2.67;;;10.10;87.10;;;;;;5056412;28;20381;-83
2020/12/17 11:40:40;;;;;;;7.07;2.60;;;10.20;87.10;;;;;;5055968;28;20481;-83
2020/12/17 11:43:05;;;;;;;5.00;2.20;;;10.20;86.40;;;;;;5056231;28;20032;-84
2020/12/17 11:45:31;;;;;;;8.73;2.10;;;10.10;86.30;;;;;;5055938;28;20025;-84
2020/12/17 11:47:57;;;;;;;4.37;2.00;;;10.10;85.90;;;;;;5055763;28;20028;-84
2020/12/17 11:50:22;;;;;;;8.23;3.70;;;10.20;86.10;;;;;;5055568;28;20057;-84
2020/12/17 11:52:48;;;;;;;6.27;2.30;;;10.10;86.40;;;;;;5057368;28;20140;-84
2020/12/17 11:55:14;;;;;;;5.53;2.00;;;10.10;86.60;;;;;;5056552;28;20386;-83
2020/12/17 11:57:40;;;;;;;7.50;2.30;;;10.10;86.80;;;;;;5056093;28;20057;-84
2020/12/17 12:00:07;;;;;;;6.13;2.33;;;10.10;86.50;;;;;;5056933;28;20025;-84
2020/12/17 12:02:33;;;;;;;7.50;2.83;;;10.10;86.50;;;;;;5055049;28;20482;-84
2020/12/17 12:04:59;;;;;;;6.90;2.70;;;10.10;86.80;;;;;;5054659;28;20389;-83
2020/12/17 12:07:25;;;;;;;11.10;2.80;;;10.10;87.00;;;;;;5055612;28;20067;-83
2020/12/17 12:09:52;;;;;;;8.60;3.00;;;10.10;86.90;;;;;;5056609;28;20481;-83
2020/12/17 12:12:18;;;;;;;9.40;2.93;;;10.10;87.00;;;;;;5055983;28;20494;-83
2020/12/17 12:14:44;;;;;;;8.53;2.80;;;10.20;86.90;;;;;;5054831;28;20044;-84
2020/12/17 12:17:09;;;;;;;10.60;3.97;;;10.20;86.70;;;;;;5052855;28;20167;-84
2020/12/17 12:19:35;;;;;;;10.53;3.90;;;10.20;86.30;;;;;;5053455;28;20394;-84
2020/12/17 12:22:00;;;;;;;12.57;4.03;;;10.20;85.80;;;;;;5054973;28;20083;-84
2020/12/17 12:24:26;;;;;;;13.77;4.33;;;10.20;87.10;;;;;;5058153;28;20397;-84
2020/12/17 12:26:51;;;;;;;7.63;2.90;;;10.30;85.90;;;;;;5057498;28;20447;-84
2020/12/17 12:29:17;;;;;;;8.43;3.20;;;10.30;85.20;;;;;;5056343;28;20032;-84
2020/12/17 12:31:43;;;;;;;11.63;2.97;;;10.30;85.60;;;;;;5056328;28;20535;-84
2020/12/17 12:34:08;;;;;;;6.97;2.30;;;10.20;84.40;;;;;;5057766;28;20059;-83
2020/12/17 12:36:34;;;;;;;7.17;2.33;;;10.30;84.10;;;;;;5057787;28;20083;-84
2020/12/17 12:38:59;;;;;;;9.13;2.70;;;10.30;84.50;;;;;;5057438;28;20021;-84
2020/12/17 12:41:25;;;;;;;9.77;2.83;;;10.30;84.30;;;;;;5058259;28;20033;-83
2020/12/17 12:43:51;;;;;;;7.77;2.37;;;10.30;84.70;;;;;;5057967;28;20040;-84
2020/12/17 12:46:19;;;;;;;8.93;2.77;;;10.30;84.60;;;;;;5058583;28;20037;-83
2020/12/17 12:48:46;;;;;;;7.15;2.42;;;10.30;84.00;;;;;;5058409;28;20040;-83
2020/12/17 12:51:13;;;;;;;8.37;2.40;;;10.30;83.70;;;;;;5057100;28;20445;-84
2020/12/17 12:53:38;;;;;;;9.57;2.87;;;10.40;83.60;;;;;;5058128;28;20028;-84
2020/12/17 12:56:04;;;;;;;10.53;2.97;;;10.30;83.60;;;;;;5057839;28;20038;-84